Jackson Springs, North Carolina
Current Conditions -  °F | °C
As of 10:55 AM on Friday 28 Nov 2014 (Local Time) from KSOP Reporting Station
Clear Clear  
Wind Chill: 41°   Ceiling: Unl
Heat Index: 45°   Visibility: 10mi
Dew Point: -8°   Wind: 7mph
Humidity: 11%   Direction: 340°NNW
Pressure: 30.37"   Gusts: NA
Location:  35.21°N, 79.63°W
Report Text: KSOP 281555Z AUTO 34006KT 10SM CLR 07/M22 A3037 RMK AO1
Loading
Personal Weather Stations






























Interactive Weather Map New forecast layout! Learn more

10-Day Weather Forecast

Advertisements
Track Severe Weather on mobile